Time;durP1;ratioP1;P1;durP2;ratioP2;P2;SDS_P1;SDS_P2;PMS_P1;PMS_P2;Temp;Humidity;BMP_temperature;BMP_pressure;BME280_temperature;BME280_humidity;BME280_pressure;Samples;Min_cycle;Max_cycle;Signal;HPM_P1;HPM_P2
2023/10/26 00:01:02;;;;;;;16.80;8.60;;;;;;;13.56;96.05;97999.86;78729;1294;3026486;-70
2023/10/26 00:03:28;;;;;;;22.60;10.30;;;;;;;13.87;93.94;97995.05;79838;1291;3018536;-71
2023/10/26 00:05:55;;;;;;;20.00;10.60;;;;;;;13.66;94.61;97996.44;79749;1294;3011363;-71
2023/10/26 00:08:23;;;;;;;24.00;10.80;;;;;;;13.57;95.56;97992.53;78582;1294;3026434;-71
2023/10/26 00:10:50;;;;;;;22.80;11.30;;;;;;;13.40;96.63;97994.64;79904;1294;3012862;-71
2023/10/26 00:13:17;;;;;;;21.40;9.10;;;;;;;13.29;98.09;97998.55;79828;1294;3011922;-71
2023/10/26 00:15:44;;;;;;;18.40;9.60;;;;;;;13.69;96.93;97989.27;78592;1291;3026379;-70
2023/10/26 00:18:13;;;;;;;19.10;9.90;;;;;;;14.05;94.29;97982.10;79870;1294;3013137;-72
2023/10/26 00:20:39;;;;;;;21.20;10.60;;;;;;;13.99;94.09;97983.88;79839;1291;3013990;-71
2023/10/26 00:23:07;;;;;;;22.50;11.10;;;;;;;13.74;95.28;97976.50;78625;1294;3055211;-72
2023/10/26 00:25:34;;;;;;;20.80;11.20;;;;;;;13.67;96.03;97972.90;79895;1291;3013370;-71
2023/10/26 00:28:00;;;;;;;21.90;9.20;;;;;;;13.55;97.57;97974.40;79806;1294;3013272;-70
2023/10/26 00:30:28;;;;;;;26.70;9.00;;;;;;;13.86;96.57;97978.62;78522;1296;3028244;-71
2023/10/26 00:32:55;;;;;;;23.30;10.50;;;;;;;14.00;95.18;97978.30;79964;1295;3013416;-67
2023/10/26 00:35:21;;;;;;;17.60;10.30;;;;;;;14.01;95.09;97970.49;79937;1292;3013513;-69
2023/10/26 00:37:49;;;;;;;28.20;11.70;;;;;;;13.93;95.63;97972.89;78595;1291;3027792;-68
2023/10/26 00:40:17;;;;;;;25.20;10.70;;;;;;;13.75;96.37;97985.14;79940;1295;3013720;-69
2023/10/26 00:42:43;;;;;;;21.30;9.90;;;;;;;13.51;98.42;97984.14;79760;1291;3011483;-68
2023/10/26 00:45:11;;;;;;;17.70;9.70;;;;;;;13.87;97.71;97978.23;78633;1294;3048709;-72
2023/10/26 00:47:37;;;;;;;19.40;9.80;;;;;;;14.14;95.91;97966.44;79894;1295;3013342;-71
2023/10/26 00:50:06;;;;;;;25.90;10.10;;;;;;;14.23;94.63;97964.10;79840;1291;3011836;-69
2023/10/26 00:52:35;;;;;;;23.30;10.90;;;;;;;14.08;95.36;97955.33;78619;1294;3051530;-68
2023/10/26 00:55:04;;;;;;;26.70;10.30;;;;;;;13.94;96.13;97955.50;80190;1291;3013069;-71
2023/10/26 00:57:33;;;;;;;18.60;8.90;;;;;;;13.80;97.13;97955.95;79394;1292;3011648;-68
2023/10/26 00:59:59;;;;;;;22.20;10.10;;;;;;;14.05;96.94;97958.25;79884;1292;3020723;-68
2023/10/26 01:02:26;;;;;;;18.40;9.90;;;;;;;14.45;94.71;97960.66;79801;1294;3011635;-67
2023/10/26 01:04:54;;;;;;;19.70;10.00;;;;;;;14.23;94.57;97960.04;78689;1294;3027029;-70
2023/10/26 01:07:20;;;;;;;19.30;10.60;;;;;;;13.94;96.70;97957.78;79991;1294;3011779;-69
2023/10/26 01:09:47;;;;;;;21.30;9.90;;;;;;;13.75;98.21;97958.04;79989;1294;3011518;-73
2023/10/26 01:12:16;;;;;;;23.00;9.30;;;;;;;13.68;99.46;97960.30;78511;1295;3026239;-69
2023/10/26 01:14:43;;;;;;;17.70;9.50;;;;;;;14.07;98.50;97958.78;79840;1292;3011555;-68
2023/10/26 01:17:09;;;;;;;17.50;9.50;;;;;;;14.48;95.22;97969.86;79778;1292;3011597;-68
2023/10/26 01:19:43;;;;;;;18.70;10.10;;;;;;;14.19;95.67;97968.25;78658;1295;3050282;-66
2023/10/26 01:22:09;;;;;;;22.90;10.10;;;;;;;13.93;97.70;97958.58;79873;1291;3013074;-65
2023/10/26 01:24:37;;;;;;;22.40;10.10;;;;;;;13.78;99.09;97961.52;78705;1295;3051801;-66
2023/10/26 01:27:04;;;;;;;23.50;10.20;;;;;;;13.67;99.78;97959.93;79881;1294;3019199;-68
2023/10/26 01:29:31;;;;;;;21.80;9.20;;;;;;;14.00;99.32;97959.00;79998;1291;3013109;-67
2023/10/26 01:31:59;;;;;;;19.20;9.50;;;;;;;14.27;97.25;97958.91;78635;1292;3026234;-69
2023/10/26 01:34:26;;;;;;;20.20;9.30;;;;;;;14.30;96.46;97964.96;79807;1295;3018100;-70
2023/10/26 01:36:52;;;;;;;18.90;10.00;;;;;;;14.25;96.70;97963.19;79981;1292;3011593;-67
2023/10/26 01:39:21;;;;;;;18.90;9.20;;;;;;;13.94;97.72;97960.22;78534;1294;3026040;-68
2023/10/26 01:41:47;;;;;;;16.60;8.50;;;;;;;14.16;98.90;97957.89;79866;1292;3013008;-67
2023/10/26 01:44:14;;;;;;;18.60;10.10;;;;;;;14.42;96.53;97951.50;79750;1291;3011532;-71
2023/10/26 01:46:41;;;;;;;19.40;9.80;;;;;;;14.38;96.57;97953.61;78628;1292;3050556;-65
2023/10/26 01:49:08;;;;;;;19.60;10.80;;;;;;;14.25;96.76;97956.19;79930;1291;3013776;-69
2023/10/26 01:51:34;;;;;;;14.90;8.60;;;;;;;14.01;98.47;97954.17;79970;1294;3011553;-71
2023/10/26 01:54:02;;;;;;;15.60;9.60;;;;;;;14.36;97.53;97957.55;78721;1294;3028572;-66
2023/10/26 01:56:30;;;;;;;17.70;9.50;;;;;;;14.67;95.24;97958.16;79814;1291;3018804;-69
2023/10/26 01:58:57;;;;;;;20.40;9.90;;;;;;;14.35;95.68;97963.95;79816;1291;3011588;-70
2023/10/26 02:01:25;;;;;;;19.60;10.00;;;;;;;14.19;97.13;97958.83;78583;1291;3049876;-65
2023/10/26 02:03:51;;;;;;;18.10;9.50;;;;;;;14.17;97.95;97944.64;79802;1295;3012941;-69
2023/10/26 02:06:18;;;;;;;19.20;9.20;;;;;;;13.98;98.77;97949.36;79820;1292;3011652;-68
2023/10/26 02:08:46;;;;;;;17.50;9.30;;;;;;;14.28;98.75;97961.85;78631;1292;3027023;-68
2023/10/26 02:11:12;;;;;;;20.80;9.80;;;;;;;14.55;96.61;97966.41;79657;1295;3013003;-69
2023/10/26 02:13:40;;;;;;;22.60;9.70;;;;;;;14.59;95.73;97966.65;79852;1291;3011592;-69
2023/10/26 02:16:07;;;;;;;20.70;10.50;;;;;;;14.30;97.22;97970.40;78620;1291;3048600;-70
2023/10/26 02:18:34;;;;;;;24.30;10.10;;;;;;;14.18;98.02;97962.11;79740;1292;3012877;-70
2023/10/26 02:21:01;;;;;;;14.50;8.00;;;;;;;14.14;98.93;97963.40;80003;1292;3011614;-72
2023/10/26 02:23:29;;;;;;;17.10;9.00;;;;;;;14.52;97.31;97962.84;78448;1297;3052507;-69
2023/10/26 02:25:56;;;;;;;17.60;9.40;;;;;;;14.99;94.72;97952.47;79826;1291;3012839;-71
2023/10/26 02:28:23;;;;;;;16.20;8.90;;;;;;;14.95;93.78;97948.95;79802;1291;3011694;-70
2023/10/26 02:30:51;;;;;;;20.00;9.80;;;;;;;14.68;95.14;97951.34;78656;1291;3025979;-66
2023/10/26 02:33:19;;;;;;;30.10;11.20;;;;;;;14.49;96.42;97953.42;79972;1294;3013355;-66
2023/10/26 02:35:45;;;;;;;23.40;8.70;;;;;;;14.31;97.68;97956.08;79790;1295;3011947;-70
2023/10/26 02:38:13;;;;;;;21.10;8.30;;;;;;;14.71;96.79;97955.79;78457;1294;3051491;-69
2023/10/26 02:40:39;;;;;;;20.50;9.10;;;;;;;15.05;94.20;97947.81;79892;1291;3018331;-68
2023/10/26 02:43:06;;;;;;;17.40;8.40;;;;;;;15.06;93.75;97949.40;79840;1291;3013221;-68
2023/10/26 02:45:34;;;;;;;21.20;10.00;;;;;;;14.93;94.11;97953.53;78826;1292;3026451;-66
2023/10/26 02:48:02;;;;;;;19.00;9.90;;;;;;;14.64;95.41;97955.58;80022;1294;3013364;-68
2023/10/26 02:50:29;;;;;;;25.20;8.50;;;;;;;14.41;97.21;97954.77;79936;1291;3011475;-67
2023/10/26 02:52:57;;;;;;;17.00;8.70;;;;;;;14.79;96.46;97947.97;78597;1291;3051392;-68
2023/10/26 02:55:24;;;;;;;21.80;9.10;;;;;;;14.97;94.73;97942.95;79856;1295;3019087;-69
2023/10/26 02:57:50;;;;;;;22.80;10.80;;;;;;;14.80;95.33;97936.39;79972;1292;3011684;-69
2023/10/26 03:00:18;;;;;;;22.20;10.50;;;;;;;14.59;96.68;97928.83;78645;1292;3026158;-69
2023/10/26 03:02:45;;;;;;;25.40;11.00;;;;;;;14.42;97.99;97929.83;79847;1292;3013394;-70
2023/10/26 03:05:11;;;;;;;22.20;9.90;;;;;;;14.25;99.31;97930.97;79894;1292;3011896;-69
2023/10/26 03:07:39;;;;;;;21.70;9.90;;;;;;;14.58;98.74;97934.04;78643;1291;3027965;-68
2023/10/26 03:10:06;;;;;;;23.90;9.80;;;;;;;14.70;96.90;97936.22;79941;1291;3013864;-69
2023/10/26 03:12:33;;;;;;;24.00;9.90;;;;;;;14.58;97.44;97934.05;79835;1292;3011730;-70
2023/10/26 03:15:02;;;;;;;21.90;11.30;;;;;;;14.40;98.61;97935.17;78601;1294;3049562;-67
2023/10/26 03:17:29;;;;;;;26.10;11.60;;;;;;;14.23;99.62;97932.83;79881;1292;3013663;-66
2023/10/26 03:19:55;;;;;;;24.00;9.00;;;;;;;14.08;100.00;97924.92;79882;1295;3011610;-68
2023/10/26 03:22:23;;;;;;;25.30;10.30;;;;;;;14.61;99.46;97921.86;78611;1295;3052178;-67
2023/10/26 03:24:51;;;;;;;23.10;10.00;;;;;;;15.02;96.68;97915.96;79947;1294;3012868;-69
2023/10/26 03:27:18;;;;;;;27.70;11.00;;;;;;;14.83;96.65;97936.64;79962;1291;3011671;-64
2023/10/26 03:29:45;;;;;;;32.70;13.20;;;;;;;14.60;97.89;97938.73;78551;1291;3049116;-72
2023/10/26 03:32:12;;;;;;;25.80;11.30;;;;;;;14.21;100.00;97939.45;79786;1291;3019794;-68
2023/10/26 03:34:39;;;;;;;25.70;10.10;;;;;;;14.05;100.00;97930.68;79787;1292;3013067;-71
2023/10/26 03:37:08;;;;;;;24.20;10.20;;;;;;;14.43;100.00;97929.38;78715;1294;3051696;-67
2023/10/26 03:39:35;;;;;;;29.50;11.40;;;;;;;14.67;99.16;97932.95;79864;1291;3011563;-70
2023/10/26 03:42:02;;;;;;;34.10;11.70;;;;;;;14.68;99.15;97944.48;79757;1291;3011633;-69
2023/10/26 03:44:29;;;;;;;31.70;12.30;;;;;;;14.63;99.38;97950.58;78538;1294;3049333;-68
2023/10/26 03:46:56;;;;;;;26.10;11.60;;;;;;;14.47;99.93;97949.60;79928;1294;3013330;-68
2023/10/26 03:49:22;;;;;;;26.30;10.40;;;;;;;14.40;100.00;97949.36;79825;1294;3011959;-67
2023/10/26 03:51:50;;;;;;;32.10;13.20;;;;;;;14.90;99.48;97952.65;78735;1291;3026633;-70
2023/10/26 03:54:17;;;;;;;30.80;13.90;;;;;;;15.16;97.37;97942.36;80036;1291;3013297;-69
2023/10/26 03:56:44;;;;;;;32.10;13.90;;;;;;;15.01;97.81;97938.97;79935;1291;3011931;-70
2023/10/26 03:59:12;;;;;;;30.60;13.10;;;;;;;14.71;99.65;97943.98;78556;1291;3049135;-70
2023/10/26 04:01:39;;;;;;;27.50;11.70;;;;;;;14.56;100.00;97952.38;79869;1294;3013518;-71
2023/10/26 04:04:05;;;;;;;19.90;9.40;;;;;;;14.57;100.00;97944.88;80083;1291;3011877;-72
2023/10/26 04:06:33;;;;;;;24.60;10.50;;;;;;;15.00;99.53;97933.80;78655;1295;3028837;-70
2023/10/26 04:09:00;;;;;;;27.30;11.90;;;;;;;15.24;97.50;97935.83;79969;1294;3013685;-70
2023/10/26 04:11:26;;;;;;;27.80;12.70;;;;;;;15.27;97.43;97924.89;80047;1292;3011530;-71
2023/10/26 04:13:54;;;;;;;26.10;11.60;;;;;;;15.15;97.67;97906.84;78703;1293;3028864;-69
2023/10/26 04:16:21;;;;;;;25.60;12.70;;;;;;;14.90;98.76;97908.77;79909;1291;3020849;-70
2023/10/26 04:18:47;;;;;;;21.00;10.30;;;;;;;14.67;99.95;97907.94;79814;1291;3011847;-71
2023/10/26 04:21:15;;;;;;;22.30;11.60;;;;;;;14.87;99.86;97909.02;78732;1294;3028362;-72
2023/10/26 04:23:42;;;;;;;22.70;12.30;;;;;;;15.00;99.31;97911.39;79958;1290;3013447;-69
2023/10/26 04:26:12;;;;;;;27.60;13.00;;;;;;;14.97;99.48;97914.61;79924;1291;3012902;-71
2023/10/26 04:28:40;;;;;;;21.00;12.30;;;;;;;14.71;100.00;97914.00;78725;1291;3048147;-71
2023/10/26 04:31:07;;;;;;;15.60;9.70;;;;;;;14.51;100.00;97915.35;79963;1291;3013469;-70
2023/10/26 04:33:33;;;;;;;23.70;12.60;;;;;;;14.71;100.00;97917.34;79963;1294;3011471;-69
2023/10/26 04:36:02;;;;;;;22.50;13.20;;;;;;;14.98;100.00;97932.11;78667;1295;3026079;-70
2023/10/26 04:38:29;;;;;;;26.80;14.10;;;;;;;14.84;100.00;97947.31;79981;1291;3013940;-69
2023/10/26 04:40:57;;;;;;;25.50;13.70;;;;;;;14.69;100.00;97954.42;79866;1290;3012260;-73
2023/10/26 04:43:26;;;;;;;19.20;10.20;;;;;;;14.53;100.00;97954.48;78611;1292;3051216;-72
2023/10/26 04:45:52;;;;;;;28.00;12.50;;;;;;;14.94;100.00;97949.21;79852;1292;3013577;-71
2023/10/26 04:48:19;;;;;;;26.60;14.30;;;;;;;15.09;100.00;97950.84;79815;1293;3011856;-70
2023/10/26 04:50:46;;;;;;;30.30;14.20;;;;;;;14.92;100.00;97959.35;78675;1292;3053774;-68
2023/10/26 04:53:13;;;;;;;32.50;15.10;;;;;;;14.78;100.00;97973.64;79835;1291;3013637;-70
2023/10/26 04:55:40;;;;;;;25.10;12.00;;;;;;;14.52;100.00;97995.70;79899;1291;3013315;-70
2023/10/26 04:58:08;;;;;;;27.60;13.60;;;;;;;14.94;100.00;97997.70;78585;1291;3026689;-69
2023/10/26 05:00:35;;;;;;;32.80;15.60;;;;;;;15.31;99.44;97983.15;79919;1291;3013135;-72
2023/10/26 05:03:02;;;;;;;30.10;14.70;;;;;;;15.44;98.11;97981.32;79914;1294;3012152;-71
2023/10/26 05:05:30;;;;;;;36.30;15.40;;;;;;;15.28;98.15;97984.41;78844;1295;3028421;-69
2023/10/26 05:07:57;;;;;;;38.60;14.00;;;;;;;15.10;98.79;97986.80;79859;1294;3013355;-71
2023/10/26 05:10:23;;;;;;;34.20;15.10;;;;;;;15.41;98.41;97986.20;79886;1291;3011450;-70
2023/10/26 05:12:52;;;;;;;36.40;16.40;;;;;;;15.97;96.07;97984.65;78536;1292;3025917;-68
2023/10/26 05:15:18;;;;;;;43.20;14.50;;;;;;;15.87;94.55;97994.89;79892;1294;3013717;-71
2023/10/26 05:17:45;;;;;;;43.30;16.20;;;;;;;15.54;95.36;97998.96;80008;1292;3012337;-72
2023/10/26 05:20:13;;;;;;;43.30;16.30;;;;;;;15.36;96.45;98004.05;78580;1294;3051566;-70
2023/10/26 05:22:39;;;;;;;44.90;13.70;;;;;;;15.24;97.17;97997.46;80049;1294;3018675;-70
2023/10/26 05:25:08;;;;;;;36.10;14.60;;;;;;;15.66;96.06;97984.27;79977;1291;3011810;-68
2023/10/26 05:27:35;;;;;;;41.60;14.50;;;;;;;16.14;93.42;97981.02;78654;1294;3048315;-70
2023/10/26 05:30:02;;;;;;;38.70;13.60;;;;;;;16.19;92.79;97984.96;79785;1294;3018615;-70
2023/10/26 05:32:29;;;;;;;35.40;15.00;;;;;;;15.94;92.97;97991.67;79899;1294;3012105;-70
2023/10/26 05:34:57;;;;;;;37.40;15.70;;;;;;;15.65;94.03;98000.85;78582;1292;3025877;-71
2023/10/26 05:37:24;;;;;;;31.90;12.60;;;;;;;15.30;96.45;98013.69;79920;1294;3018569;-69
2023/10/26 05:39:50;;;;;;;33.30;13.80;;;;;;;15.77;95.61;98002.80;80032;1290;3011652;-69
2023/10/26 05:42:18;;;;;;;34.50;13.10;;;;;;;16.19;92.91;97999.95;78645;1294;3026452;-68
2023/10/26 05:44:45;;;;;;;36.60;12.30;;;;;;;16.15;92.17;97999.84;79713;1291;3013541;-68
2023/10/26 05:47:12;;;;;;;31.50;14.60;;;;;;;15.95;92.93;97999.89;79896;1292;3012194;-68
2023/10/26 05:49:39;;;;;;;35.20;14.60;;;;;;;15.79;93.75;97995.33;78536;1294;3027661;-69
2023/10/26 05:52:06;;;;;;;30.40;11.10;;;;;;;15.63;94.96;97999.98;79771;1291;3013535;-68
2023/10/26 05:54:33;;;;;;;27.90;11.60;;;;;;;15.95;94.08;98005.96;79880;1291;3012757;-65
2023/10/26 05:57:01;;;;;;;33.50;12.70;;;;;;;16.22;92.58;98005.44;78449;1295;3027060;-70
2023/10/26 05:59:27;;;;;;;29.20;12.80;;;;;;;16.32;91.94;98000.67;79778;1291;3013291;-66
2023/10/26 06:01:54;;;;;;;34.10;13.20;;;;;;;16.18;92.52;98003.25;79839;1293;3011435;-66
2023/10/26 06:04:21;;;;;;;40.10;14.60;;;;;;;16.05;92.67;98011.52;78568;1292;3027870;-67
2023/10/26 06:06:48;;;;;;;28.10;11.40;;;;;;;15.84;94.27;98013.18;79709;1291;3013088;-67
2023/10/26 06:09:15;;;;;;;30.50;12.30;;;;;;;16.40;92.55;98016.42;79851;1291;3013016;-69
2023/10/26 06:11:43;;;;;;;28.90;13.20;;;;;;;16.79;90.09;98011.10;78573;1290;3026614;-67
2023/10/26 06:14:09;;;;;;;29.10;13.10;;;;;;;16.62;90.07;98014.27;79939;1292;3012915;-66
2023/10/26 06:16:36;;;;;;;35.80;14.30;;;;;;;16.43;91.45;98013.79;79775;1294;3011563;-66
2023/10/26 06:19:05;;;;;;;26.50;14.10;;;;;;;16.35;91.43;98012.90;78739;1294;3053035;-64
2023/10/26 06:21:32;;;;;;;30.10;11.70;;;;;;;16.24;91.88;98010.34;79904;1294;3013234;-71
2023/10/26 06:23:58;;;;;;;27.90;13.10;;;;;;;16.70;91.06;98005.75;79932;1292;3011971;-68
2023/10/26 06:26:26;;;;;;;31.90;13.70;;;;;;;16.97;89.34;98011.33;78709;1291;3048563;-69
2023/10/26 06:28:53;;;;;;;29.00;13.40;;;;;;;16.91;89.06;98014.50;80024;1291;3013081;-69
2023/10/26 06:31:20;;;;;;;33.90;14.50;;;;;;;16.61;89.86;98024.08;80113;1296;3011990;-67
2023/10/26 06:33:48;;;;;;;40.30;15.10;;;;;;;16.34;91.54;98032.96;79035;1295;3051919;-68
2023/10/26 06:36:15;;;;;;;25.60;13.30;;;;;;;16.21;92.68;98021.96;79974;1293;3012605;-71
2023/10/26 06:38:41;;;;;;;31.90;15.70;;;;;;;16.67;90.86;98011.09;80034;1291;3013464;-67
2023/10/26 06:41:09;;;;;;;31.20;15.00;;;;;;;17.13;88.85;98007.48;78644;1295;3027632;-64
2023/10/26 06:43:37;;;;;;;34.50;14.20;;;;;;;17.14;88.73;98005.41;79721;1294;3012944;-67
2023/10/26 06:46:04;;;;;;;25.70;12.80;;;;;;;16.93;88.72;98004.55;80046;1291;3011874;-66
2023/10/26 06:48:32;;;;;;;26.40;14.60;;;;;;;16.68;89.95;98004.19;78807;1291;3053684;-70
2023/10/26 06:51:02;;;;;;;24.90;12.30;;;;;;;16.48;90.70;98002.29;79901;1294;3013281;-67
2023/10/26 06:53:30;;;;;;;31.30;12.60;;;;;;;16.92;90.23;98004.58;78576;1295;3057047;-69
2023/10/26 06:55:58;;;;;;;25.90;13.00;;;;;;;17.19;87.88;98012.79;79897;1291;3013103;-68
2023/10/26 06:58:24;;;;;;;32.60;13.20;;;;;;;17.05;88.12;98021.73;79844;1291;3011774;-72
2023/10/26 07:00:53;;;;;;;31.50;14.30;;;;;;;16.86;88.99;98029.50;78584;1294;3025058;-69
2023/10/26 07:03:20;;;;;;;36.00;16.00;;;;;;;16.63;89.93;98033.20;79903;1295;3013780;-72
2023/10/26 07:05:50;;;;;;;32.20;14.50;;;;;;;16.34;91.44;98035.23;79454;1291;3011798;-72
2023/10/26 07:08:18;;;;;;;35.30;13.80;;;;;;;16.60;90.78;98041.48;79994;1291;3011666;-70
2023/10/26 07:10:44;;;;;;;42.30;18.10;;;;;;;16.74;90.21;98046.84;79858;1292;3011870;-72
2023/10/26 07:13:12;;;;;;;37.40;17.20;;;;;;;16.70;90.31;98038.66;78634;1290;3053540;-73
2023/10/26 07:15:39;;;;;;;34.70;16.90;;;;;;;16.52;90.83;98035.83;79863;1291;3013567;-72
2023/10/26 07:18:05;;;;;;;45.60;19.90;;;;;;;16.36;91.48;98037.34;79929;1292;3011545;-71
2023/10/26 07:20:33;;;;;;;31.60;15.50;;;;;;;16.08;93.07;98043.59;78574;1291;3025495;-72
2023/10/26 07:23:03;;;;;;;38.10;16.00;;;;;;;16.42;93.07;98048.05;79783;1291;3011920;-69
2023/10/26 07:25:35;;;;;;;36.10;17.40;;;;;;;16.79;91.45;98043.03;79284;1291;3012891;-70
2023/10/26 07:28:03;;;;;;;43.30;17.90;;;;;;;16.76;90.71;98049.33;79904;1291;3011714;-70
2023/10/26 07:30:30;;;;;;;40.90;18.80;;;;;;;16.56;91.82;98054.30;78588;1295;3054641;-71
2023/10/26 07:32:57;;;;;;;32.80;17.20;;;;;;;16.42;92.36;98055.98;79892;1295;3012833;-73
2023/10/26 07:35:23;;;;;;;41.10;15.30;;;;;;;16.12;94.10;98057.36;79930;1291;3012040;-73
2023/10/26 07:37:52;;;;;;;37.40;13.80;;;;;;;16.39;93.51;98052.71;78713;1295;3026601;-70
2023/10/26 07:40:19;;;;;;;33.80;15.70;;;;;;;16.68;92.49;98043.45;80104;1291;3014954;-68
2023/10/26 07:42:45;;;;;;;28.00;14.20;;;;;;;16.72;92.19;98031.86;79869;1292;3013341;-70
2023/10/26 07:45:13;;;;;;;41.40;15.90;;;;;;;16.63;92.14;98019.68;78758;1291;3053368;-68
2023/10/26 07:47:40;;;;;;;41.10;16.60;;;;;;;16.48;92.59;98026.34;80094;1294;3013267;-67
2023/10/26 07:50:07;;;;;;;30.10;14.80;;;;;;;16.22;94.01;98044.82;79880;1292;3011820;-69
2023/10/26 07:52:35;;;;;;;31.80;15.70;;;;;;;16.64;93.10;98045.29;78696;1295;3028558;-71
2023/10/26 07:55:02;;;;;;;46.70;21.10;;;;;;;17.13;91.17;98035.27;79930;1292;3015756;-68
2023/10/26 07:57:29;;;;;;;46.50;21.70;;;;;;;17.19;90.76;98032.58;80049;1291;3011700;-70
2023/10/26 07:59:57;;;;;;;40.10;21.50;;;;;;;16.93;90.73;98037.15;78712;1291;3052893;-68
2023/10/26 08:02:23;;;;;;;47.10;22.60;;;;;;;16.61;92.17;98046.11;79914;1294;3018505;-69
2023/10/26 08:04:50;;;;;;;47.10;19.70;;;;;;;16.30;94.04;98040.95;77442;1291;3482652;-69
2023/10/26 08:07:18;;;;;;;61.90;25.10;;;;;;;16.77;93.62;98030.60;78647;1292;3029000;-67
2023/10/26 08:09:44;;;;;;;77.40;32.60;;;;;;;17.18;90.97;98034.73;80043;1292;3012791;-68
2023/10/26 08:12:11;;;;;;;78.70;33.30;;;;;;;17.10;90.67;98038.36;80000;1297;3011808;-69
2023/10/26 08:14:39;;;;;;;69.70;30.40;;;;;;;16.93;91.45;98038.13;78654;1291;3027685;-69
2023/10/26 08:17:05;;;;;;;53.10;23.40;;;;;;;16.79;92.33;98040.49;79830;1295;3018710;-68
2023/10/26 08:19:32;;;;;;;36.70;17.10;;;;;;;16.62;93.24;98035.61;80154;1291;3011627;-70
2023/10/26 08:22:00;;;;;;;32.10;14.60;;;;;;;16.99;92.46;98035.69;78688;1292;3027806;-69
2023/10/26 08:24:27;;;;;;;30.40;16.80;;;;;;;17.38;90.12;98032.23;79806;1292;3019278;-69
2023/10/26 08:26:53;;;;;;;30.30;16.90;;;;;;;17.46;89.72;98029.28;79821;1295;3013254;-70
2023/10/26 08:29:21;;;;;;;38.90;18.40;;;;;;;17.25;89.87;98032.80;78718;1296;3051379;-69
2023/10/26 08:31:48;;;;;;;35.10;18.00;;;;;;;16.88;92.00;98035.95;79898;1295;3018557;-73
2023/10/26 08:34:15;;;;;;;28.70;13.10;;;;;;;16.70;93.27;98040.25;79842;1293;3013013;-66
2023/10/26 08:36:44;;;;;;;21.20;11.40;;;;;;;17.02;92.79;98034.67;78738;1293;3028241;-69
2023/10/26 08:39:10;;;;;;;22.00;13.60;;;;;;;17.18;91.65;98037.01;79955;1292;3013527;-71
2023/10/26 08:41:37;;;;;;;28.40;14.60;;;;;;;17.25;91.28;98037.05;79831;1291;3011721;-70
2023/10/26 08:44:07;;;;;;;29.40;15.30;;;;;;;17.09;92.12;98042.02;78714;1292;3053750;-70
2023/10/26 08:46:35;;;;;;;32.40;17.70;;;;;;;16.83;93.31;98050.00;79993;1295;3013628;-70
2023/10/26 08:49:02;;;;;;;33.80;13.80;;;;;;;16.68;94.64;98048.08;79774;1293;3011529;-71
2023/10/26 08:51:33;;;;;;;35.00;15.60;;;;;;;16.95;94.05;98047.45;78490;1298;3069344;-70
2023/10/26 08:54:00;;;;;;;32.90;16.30;;;;;;;17.30;92.19;98040.83;79851;1292;3012642;-71
2023/10/26 08:56:26;;;;;;;42.70;20.30;;;;;;;17.26;92.20;98046.52;79933;1294;3011873;-70
2023/10/26 08:58:56;;;;;;;31.20;17.70;;;;;;;17.19;92.63;98047.33;78661;1292;3026127;-70
2023/10/26 09:01:24;;;;;;;41.20;20.10;;;;;;;16.99;93.11;98050.21;79934;1294;3013136;-72
2023/10/26 09:03:51;;;;;;;29.80;15.90;;;;;;;16.89;93.35;98056.95;79888;1294;3011868;-71
2023/10/26 09:06:18;;;;;;;24.40;13.60;;;;;;;17.15;92.61;98056.58;78600;1294;3068564;-71
2023/10/26 09:09:00;;;;;;;26.90;15.00;;;;;;;17.35;91.33;98057.52;79965;1292;3013666;-69
2023/10/26 09:11:27;;;;;;;28.70;16.20;;;;;;;17.33;90.75;98055.55;78583;1295;3050078;-72
2023/10/26 09:13:54;;;;;;;32.00;18.30;;;;;;;17.01;92.20;98053.90;80125;1294;3013334;-70
2023/10/26 09:16:34;;;;;;;30.30;17.60;;;;;;;16.81;93.58;98053.16;79821;1297;3011943;-72
2023/10/26 09:19:02;;;;;;;31.10;18.50;;;;;;;17.12;92.98;98058.12;78613;1295;3054183;-70
2023/10/26 09:21:29;;;;;;;30.30;15.70;;;;;;;17.34;91.89;98055.94;79828;1294;3014711;-70
2023/10/26 09:23:56;;;;;;;30.20;16.70;;;;;;;17.14;92.25;98054.37;79891;1292;3011599;-72
2023/10/26 09:26:24;;;;;;;37.70;19.40;;;;;;;17.01;93.10;98055.62;78865;1291;3049184;-69
2023/10/26 09:28:55;;;;;;;30.70;16.20;;;;;;;16.84;94.13;98055.92;79773;1294;3013016;-70
2023/10/26 09:31:24;;;;;;;31.80;16.30;;;;;;;17.26;93.27;98042.66;78734;1294;3052793;-71
2023/10/26 09:33:50;;;;;;;28.60;16.40;;;;;;;17.56;90.66;98041.09;79897;1294;3012967;-71
2023/10/26 09:36:18;;;;;;;32.00;17.00;;;;;;;17.54;90.87;98031.61;80133;1292;3011503;-71
2023/10/26 09:38:47;;;;;;;39.70;19.50;;;;;;;17.45;90.84;98026.04;78770;1292;3056843;-72
2023/10/26 09:41:18;;;;;;;35.90;18.90;;;;;;;17.05;92.55;98035.61;79885;1294;3013093;-69
2023/10/26 09:43:47;;;;;;;29.40;14.10;;;;;;;16.83;94.31;98042.38;78583;1293;3050176;-67
2023/10/26 09:46:14;;;;;;;25.60;13.90;;;;;;;17.25;93.29;98043.45;79986;1294;3013681;-72
2023/10/26 09:48:41;;;;;;;35.10;19.60;;;;;;;17.66;91.07;98042.77;79885;1292;3013185;-71
2023/10/26 09:51:13;;;;;;;35.10;15.90;;;;;;;17.74;90.49;98033.87;78741;1291;3050113;-71
2023/10/26 09:53:42;;;;;;;32.50;19.10;;;;;;;17.61;90.47;98036.29;80101;1294;3011542;-72
2023/10/26 09:56:14;;;;;;;34.20;18.80;;;;;;;17.41;90.95;98031.75;78789;1292;3049675;-71
2023/10/26 09:58:41;;;;;;;25.40;13.30;;;;;;;17.24;92.47;98028.73;79913;1291;3011657;-71
2023/10/26 10:01:32;;;;;;;25.70;13.70;;;;;;;17.71;90.86;98024.05;78621;1294;3052086;-70
2023/10/26 10:04:00;;;;;;;35.10;16.90;;;;;;;18.02;88.53;98028.52;78575;1295;3052994;-69
2023/10/26 10:06:48;;;;;;;31.50;15.20;;;;;;;17.90;88.52;98028.61;79803;1292;3013102;-70
2023/10/26 10:09:19;;;;;;;33.90;17.90;;;;;;;17.68;89.49;98029.30;78714;1293;3051417;-70
2023/10/26 10:12:15;;;;;;;38.80;18.20;;;;;;;17.34;90.77;98039.77;81017;1295;3011616;-69
2023/10/26 10:14:54;;;;;;;;;;;;;;;17.24;92.28;98040.90;78720;1295;3049770;-68
2023/10/26 10:17:22;;;;;;;31.00;14.70;;;;;;;17.81;90.24;98040.70;78724;1296;3052818;-69
2023/10/26 10:20:18;;;;;;;29.80;16.00;;;;;;;18.01;88.37;98044.17;79881;1294;3013056;-68
2023/10/26 10:22:51;;;;;;;31.10;15.90;;;;;;;17.88;88.51;98042.77;78838;1303;3053165;-70
2023/10/26 10:25:18;;;;;;;28.60;16.50;;;;;;;17.64;89.45;98047.27;79793;1292;3011810;-69
2023/10/26 10:27:49;;;;;;;33.30;17.80;;;;;;;17.36;90.71;98052.17;78741;1294;3051758;-70
2023/10/26 10:30:18;;;;;;;26.60;15.10;;;;;;;17.24;91.94;98051.81;79762;1294;3013178;-70
2023/10/26 10:32:47;;;;;;;23.90;13.30;;;;;;;17.64;90.98;98058.02;78805;1292;3049189;-70
2023/10/26 10:35:43;;;;;;;31.40;16.20;;;;;;;18.23;87.65;98068.05;79933;1295;3013463;-71
2023/10/26 10:38:11;;;;;;;25.20;15.00;;;;;;;18.20;85.62;98076.45;78597;1295;3052042;-70
2023/10/26 10:40:38;;;;;;;28.30;15.30;;;;;;;17.73;86.03;98074.94;79880;1292;3013460;-69
2023/10/26 10:43:05;;;;;;;26.60;15.90;;;;;;;17.45;86.72;98074.13;79828;1291;3011567;-69
2023/10/26 10:45:33;;;;;;;24.40;12.70;;;;;;;17.31;87.55;98071.67;78577;1292;3057300;-71
2023/10/26 10:47:59;;;;;;;30.70;14.80;;;;;;;17.89;86.17;98075.80;79934;1294;3013143;-69
2023/10/26 10:50:27;;;;;;;24.50;15.30;;;;;;;18.08;83.82;98078.31;79641;1295;3013149;-68
2023/10/26 10:52:55;;;;;;;24.90;15.40;;;;;;;17.90;84.22;98074.52;78546;1294;3051517;-68
2023/10/26 10:55:29;;;;;;;29.80;15.10;;;;;;;17.71;84.85;98076.54;79984;1292;3012781;-70
2023/10/26 10:57:58;;;;;;;29.30;17.00;;;;;;;17.48;85.32;98076.80;78612;1291;3051071;-70
2023/10/26 11:00:25;;;;;;;19.80;13.10;;;;;;;17.27;86.80;98068.50;79911;1292;3013147;-71
2023/10/26 11:02:58;;;;;;;24.70;13.40;;;;;;;17.71;86.31;98058.51;79756;1295;3011629;-67
2023/10/26 11:05:36;;;;;;;27.20;14.70;;;;;;;18.24;84.63;98047.54;78662;1297;3050785;-71